Cedar City, UT

2:38 AM MST on December 11, 2016 (GMT -0700)
Cedar City Regional | | Change Station

Elev 5620 ft 37.70 °N, 113.10 °W | Updated 45 minutes ago

Overcast
Overcast
43 °F
Feels Like 35 °F
N
18
Wind Variable Wind from SSW
Gusts 25 mph

Today
High -- | Low -- °F
--% Chance of Precip.
Yesterday
High -- | Low -- °F
Precip. -- in
Pressure 29.91 in
Visibility 10.0 miles
Clouds Overcast 8500 ft
Windchill 35 °F
Dew Point 35 °F
Humidity 74%
Rainfall 0.00 in
Snow Depth Not available.
7:37 AM 5:13 PM
Waxing Gibbous, 90% visible
METAR KCDC 110853Z AUTO 20016G22KT 10SM OVC085 06/02 A2998 RMK AO2 SLP126 T00610017 50002
Pressure 29.91 in
Visibility 10.0 miles
Clouds Overcast 8500 ft
Windchill 35 °F
Dew Point 35 °F
Humidity 74%
Rainfall 0.00 in
Snow Depth Not available.
7:37 AM 5:13 PM
Waxing Gibbous, 90% visible
METAR KCDC 110853Z AUTO 20016G22KT 10SM OVC085 06/02 A2998 RMK AO2 SLP126 T00610017 50002

10-Day Weather Forecast

Almanac

Astronomy

Dec. 11, 2016 Rise Set
Actual Time
Civil Twilight
Nautical Twilight
Astronomical Twilight
Moon
Length of Visible Light
Length of Day
Tomorrow will be .
, % of the Moon is Illuminated

Today's Extremes

State Highs State Lows

Community

WunderPhotos

Upload Photos

1,956,705 photos uploaded!

WunderBlog® & News

Nearby

Air Quality

  Air Quality AQ Index Pollutant
Not available.

Snow Depth

Station Depth Elevation

Earthquake Activity

City Distance Mag. Time & Date
Minimum magnitude displayed is 2.5.

Coastal Water Temperatures

Place Temperature

Stations

Nearby Weather Stations

Station Location Temp. Windchill Dew Point Humidity Wind Precip. Elev Updated Type
                   

Watches & Warnings

There are currently no watches in effect.